Time;durP1;ratioP1;P1;durP2;ratioP2;P2;SDS_P1;SDS_P2;PMS_P1;PMS_P2;Temp;Humidity;BMP_temperature;BMP_pressure;BME280_temperature;BME280_humidity;BME280_pressure;Samples;Min_cycle;Max_cycle;Signal;HPM_P1;HPM_P2
2021/04/21 00:00:32;;;;;;;23.42;14.25;;;256.20;2252.80;;;;;;4804994;29;20051;-83
2021/04/21 00:02:59;;;;;;;27.30;15.35;;;256.10;2252.80;;;;;;4805371;29;20145;-84
2021/04/21 00:05:27;;;;;;;22.63;15.45;;;256.20;2252.80;;;;;;4805078;29;20579;-83
2021/04/21 00:07:55;;;;;;;26.02;15.15;;;256.40;2252.80;;;;;;4805178;29;20115;-83
2021/04/21 00:10:23;;;;;;;21.83;15.10;;;256.20;2252.80;;;;;;4804359;29;20407;-84
2021/04/21 00:12:50;;;;;;;24.67;14.10;;;256.20;2252.80;;;;;;4804910;29;20100;-83
2021/04/21 00:15:20;;;;;;;20.02;14.07;;;256.20;2252.80;;;;;;4804962;29;20043;-84
2021/04/21 00:17:49;;;;;;;20.33;13.98;;;256.20;2252.80;;;;;;4804925;29;20047;-85
2021/04/21 00:20:16;;;;;;;25.40;16.42;;;256.10;2252.80;;;;;;4791023;29;20038;-84
2021/04/21 00:22:45;;;;;;;25.05;15.75;;;256.10;2252.80;;;;;;4804681;29;20155;-84
2021/04/21 00:25:14;;;;;;;26.20;17.42;;;256.10;2252.80;;;;;;4804433;29;20035;-83
2021/04/21 00:27:41;;;;;;;22.00;14.77;;;256.10;2252.80;;;;;;4804467;29;20035;-84
2021/04/21 00:30:10;;;;;;;23.60;15.15;;;256.20;2252.80;;;;;;4804764;29;20058;-83
2021/04/21 00:32:45;;;;;;;19.33;13.43;;;256.20;2252.80;;;;;;4804766;29;20066;-83
2021/04/21 00:35:14;;;;;;;22.75;14.52;;;256.20;2252.80;;;;;;4804525;29;20046;-83
2021/04/21 00:37:43;;;;;;;22.13;15.35;;;256.20;2252.80;;;;;;4804139;29;20036;-84
2021/04/21 00:40:12;;;;;;;24.05;15.73;;;256.00;2252.80;;;;;;4804433;29;20047;-83
2021/04/21 00:42:58;;;;;;;21.42;14.50;;;256.10;2252.80;;;;;;4804406;29;20128;-84
2021/04/21 00:45:42;;;;;;;20.70;14.52;;;256.20;2252.80;;;;;;4804786;29;20389;-83
2021/04/21 00:48:28;;;;;;;20.55;15.35;;;256.40;2252.80;;;;;;4789460;30;20046;-83
2021/04/21 00:51:01;;;;;;;20.85;15.10;;;256.50;2252.80;;;;;;4804493;29;20043;-83
2021/04/21 00:53:33;;;;;;;26.27;16.55;;;256.60;2252.80;;;;;;4804047;29;20035;-85
2021/04/21 00:56:20;;;;;;;28.23;15.45;;;256.60;2252.80;;;;;;4804156;29;20039;-83
2021/04/21 00:58:59;;;;;;;21.70;14.55;;;256.60;2252.80;;;;;;4789035;30;20031;-84
2021/04/21 01:01:27;;;;;;;24.48;15.40;;;256.60;2252.80;;;;;;4803954;29;20054;-84
2021/04/21 01:03:53;;;;;;;26.08;15.93;;;256.70;2252.80;;;;;;4804087;29;20052;-83
2021/04/21 01:06:29;;;;;;;21.95;15.23;;;256.60;2252.80;;;;;;4803910;29;20050;-83
2021/04/21 01:08:58;;;;;;;23.65;17.42;;;256.60;2252.80;;;;;;4804117;29;20047;-83
2021/04/21 01:11:45;;;;;;;29.25;18.90;;;256.40;2252.80;;;;;;4803739;29;20139;-83
2021/04/21 01:14:17;;;;;;;24.33;18.02;;;256.50;2252.80;;;;;;4807402;29;20041;-82
2021/04/21 01:16:47;;;;;;;23.70;17.73;;;256.50;2252.80;;;;;;4808844;29;20040;-83
2021/04/21 01:19:44;;;;;;;29.02;19.77;;;256.50;2252.80;;;;;;4807110;29;20850;-82
2021/04/21 01:22:56;;;;;;;28.73;19.45;;;256.30;2252.80;;;;;;4773926;30;20051;-83
2021/04/21 01:25:40;;;;;;;26.80;18.20;;;256.20;2252.80;;;;;;4758945;30;20044;-82
2021/04/21 01:28:11;;;;;;;27.83;18.02;;;256.20;2252.80;;;;;;4771867;30;20082;-84
2021/04/21 01:30:42;;;;;;;30.38;17.38;;;231.30;2252.80;;;;;;4769652;30;20052;-83
2021/04/21 01:33:16;;;;;;;28.42;18.02;;;256.00;2252.80;;;;;;4770471;30;20144;-84
2021/04/21 01:35:51;;;;;;;29.17;18.55;;;256.10;2252.80;;;;;;4769976;30;20134;-84
2021/04/21 01:38:20;;;;;;;26.95;17.67;;;231.30;2252.80;;;;;;4769985;30;20043;-85
2021/04/21 01:40:48;;;;;;;34.05;22.00;;;256.10;2252.80;;;;;;4769537;30;20163;-84
2021/04/21 01:43:32;;;;;;;38.58;24.60;;;256.00;2252.80;;;;;;4769730;30;20031;-84
2021/04/21 01:46:00;;;;;;;40.50;25.38;;;256.10;2252.80;;;;;;4769430;30;20044;-84
2021/04/21 01:48:28;;;;;;;41.13;26.48;;;256.20;2252.80;;;;;;4754245;30;20051;-83
2021/04/21 01:50:54;;;;;;;38.30;23.63;;;256.20;2252.80;;;;;;4769707;30;20175;-83
2021/04/21 01:53:23;;;;;;;34.08;20.23;;;256.30;2252.80;;;;;;4769551;30;20039;-84
2021/04/21 01:55:55;;;;;;;32.20;20.60;;;256.10;2252.80;;;;;;4754667;30;20040;-84
2021/04/21 01:59:06;;;;;;;35.93;22.17;;;256.20;2252.80;;;;;;4783155;29;20186;-84
2021/04/21 02:01:32;;;;;;;40.05;23.70;;;256.00;2252.80;;;;;;4755130;30;20101;-86
2021/04/21 02:04:13;;;;;;;43.38;23.02;;;256.00;2252.80;;;;;;4755241;30;20131;-84
2021/04/21 02:07:01;;;;;;;38.13;24.05;;;256.00;2252.80;;;;;;4770461;30;20044;-84
2021/04/21 02:09:44;;;;;;;35.78;23.52;;;256.00;2252.80;;;;;;4769104;30;20079;-84
2021/04/21 02:12:15;;;;;;;32.38;20.98;;;256.10;2252.80;;;;;;4769457;30;20105;-84
2021/04/21 02:14:50;;;;;;;32.75;21.60;;;256.10;2252.80;;;;;;4754497;30;20071;-84
2021/04/21 02:17:40;;;;;;;34.28;20.38;;;256.10;2252.80;;;;;;4769214;30;20044;-84
2021/04/21 02:20:25;;;;;;;25.83;18.55;;;256.10;2252.80;;;;;;4754525;30;20043;-83
2021/04/21 02:23:16;;;;;;;35.47;20.60;;;256.10;2252.80;;;;;;4769342;30;20154;-84
2021/04/21 02:26:04;;;;;;;29.70;19.33;;;256.10;2252.80;;;;;;4754375;30;20095;-84
2021/04/21 02:29:02;;;;;;;150.02;78.20;;;256.20;2252.80;;;;;;4769090;30;20105;-83
2021/04/21 02:31:52;;;;;;;42.70;27.63;;;256.20;2252.80;;;;;;4769174;30;20048;-85
2021/04/21 02:34:27;;;;;;;29.85;21.15;;;256.10;2252.80;;;;;;4769466;30;20055;-86
2021/04/21 02:37:15;;;;;;;25.63;18.23;;;256.10;2252.80;;;;;;4769329;30;20043;-83
2021/04/21 02:39:47;;;;;;;25.73;18.15;;;256.10;2252.80;;;;;;4802564;29;20035;-84
2021/04/21 02:42:37;;;;;;;22.65;16.40;;;256.10;2252.80;;;;;;4802875;29;20137;-84
2021/04/21 02:45:13;;;;;;;22.67;15.43;;;256.10;2252.80;;;;;;4802901;29;20039;-84
2021/04/21 02:47:46;;;;;;;20.55;15.43;;;256.00;2252.80;;;;;;4802625;29;20039;-84
2021/04/21 02:50:38;;;;;;;22.17;13.48;;;256.00;2252.80;;;;;;4802878;29;20071;-84
2021/04/21 02:53:24;;;;;;;17.58;14.02;;;256.00;2252.80;;;;;;4802890;29;20365;-85
2021/04/21 02:55:59;;;;;;;16.85;12.50;;;256.00;2252.80;;;;;;4802368;29;20092;-84
2021/04/21 02:58:36;;;;;;;20.67;13.60;;;256.00;2252.80;;;;;;4802722;29;20514;-84
2021/04/21 03:01:32;;;;;;;22.33;14.30;;;231.30;2252.80;;;;;;4806073;29;20051;-84
2021/04/21 03:04:35;;;;;;;24.50;16.80;;;231.10;2252.80;;;;;;4772722;30;20040;-84
2021/04/21 03:07:05;;;;;;;35.13;22.50;;;231.10;2252.80;;;;;;4772240;30;20128;-83
2021/04/21 03:09:40;;;;;;;43.95;29.15;;;231.00;2252.80;;;;;;4773464;30;20466;-84
2021/04/21 03:12:10;;;;;;;59.15;35.05;;;231.10;2252.80;;;;;;4772691;30;20040;-84
2021/04/21 03:14:40;;;;;;;48.58;30.98;;;231.20;2252.80;;;;;;4772043;30;20039;-83
2021/04/21 03:17:10;;;;;;;48.78;31.65;;;231.30;2252.80;;;;;;4771848;30;20047;-84
2021/04/21 03:19:47;;;;;;;50.72;30.08;;;256.00;2252.80;;;;;;4772321;30;20071;-84
2021/04/21 03:22:14;;;;;;;49.85;31.70;;;256.10;2252.80;;;;;;4771914;30;20052;-83
2021/04/21 03:25:27;;;;;;;42.72;27.90;;;256.10;2252.80;;;;;;4772066;30;20052;-84
2021/04/21 03:28:01;;;;;;;45.55;27.08;;;256.10;2252.80;;;;;;4701411;30;20160;-85
2021/04/21 03:30:31;;;;;;;39.70;27.88;;;256.10;2252.80;;;;;;4701669;30;20053;-84
2021/04/21 03:33:25;;;;;;;39.03;26.48;;;256.20;2252.80;;;;;;4702077;30;20046;-84
2021/04/21 03:35:52;;;;;;;;;;;256.10;2252.80;;;;;;4667865;30;20078;-84
2021/04/21 03:38:19;;;;;;;46.05;28.40;;;256.20;2252.80;;;;;;4667301;30;19912;-83
2021/04/21 03:40:45;;;;;;;46.97;29.98;;;256.10;2252.80;;;;;;4674939;30;20075;-84
2021/04/21 03:43:11;;;;;;;43.55;27.73;;;256.10;2252.80;;;;;;4684803;30;20519;-84
2021/04/21 03:45:46;;;;;;;44.78;27.27;;;256.00;2252.80;;;;;;4684108;30;20125;-84
2021/04/21 03:48:14;;;;;;;46.47;27.95;;;256.10;2252.80;;;;;;4684173;30;20038;-84
2021/04/21 03:50:39;;;;;;;42.00;23.30;;;256.10;2252.80;;;;;;4684414;30;20137;-84
2021/04/21 03:53:08;;;;;;;34.67;22.40;;;256.00;2252.80;;;;;;4684148;30;20110;-84
2021/04/21 03:55:36;;;;;;;41.05;21.98;;;231.30;2252.80;;;;;;4683820;30;20046;-83
2021/04/21 03:58:10;;;;;;;35.53;23.67;;;231.30;2252.80;;;;;;4684208;30;20045;-84
2021/04/21 04:00:39;;;;;;;42.28;24.05;;;231.30;2252.80;;;;;;4684221;30;20539;-85
2021/04/21 04:03:17;;;;;;;40.97;27.05;;;231.30;2252.80;;;;;;4702944;30;20560;-84
2021/04/21 04:05:43;;;;;;;34.63;23.38;;;231.20;2252.80;;;;;;4736326;30;20037;-84
2021/04/21 04:08:14;;;;;;;38.88;24.25;;;231.30;2252.80;;;;;;4735988;30;20044;-85
2021/04/21 04:10:49;;;;;;;37.50;24.00;;;231.30;2252.80;;;;;;4734951;30;20503;-83
2021/04/21 04:13:16;;;;;;;34.97;24.08;;;231.20;2252.80;;;;;;4774842;29;20039;-84
2021/04/21 04:15:43;;;;;;;36.33;24.17;;;231.30;2252.80;;;;;;4796531;30;20082;-83
2021/04/21 04:18:14;;;;;;;40.60;23.83;;;231.20;2252.80;;;;;;4801102;29;20055;-84
2021/04/21 04:20:42;;;;;;;46.60;26.13;;;231.20;2252.80;;;;;;4795711;29;20035;-84
2021/04/21 04:23:10;;;;;;;46.67;29.08;;;231.30;2252.80;;;;;;4797245;30;20051;-83
2021/04/21 04:25:44;;;;;;;43.20;26.77;;;231.20;2252.80;;;;;;4796006;30;20051;-83
2021/04/21 04:28:11;;;;;;;43.13;28.02;;;231.30;2252.80;;;;;;4794573;30;20039;-84
2021/04/21 04:30:38;;;;;;;39.33;26.63;;;231.30;2252.80;;;;;;4789584;29;20127;-84
2021/04/21 04:33:06;;;;;;;49.78;28.20;;;256.00;2252.80;;;;;;4789644;30;20054;-84
2021/04/21 04:35:33;;;;;;;47.42;29.35;;;231.30;2252.80;;;;;;4773767;30;20035;-84
2021/04/21 04:38:01;;;;;;;43.55;28.73;;;231.30;2252.80;;;;;;4789682;30;20133;-83
2021/04/21 04:40:27;;;;;;;56.45;32.45;;;256.00;2252.80;;;;;;4774372;29;20122;-83
2021/04/21 04:42:53;;;;;;;55.65;32.70;;;231.30;2252.80;;;;;;4789430;29;20043;-83
2021/04/21 04:45:21;;;;;;;52.50;34.10;;;256.00;2252.80;;;;;;4774516;30;20495;-83
2021/04/21 04:47:51;;;;;;;49.03;28.58;;;256.00;2252.80;;;;;;4789229;29;20043;-84
2021/04/21 04:50:21;;;;;;;53.05;30.83;;;231.30;2252.80;;;;;;4787055;29;20039;-85
2021/04/21 04:52:52;;;;;;;44.28;30.35;;;231.30;2252.80;;;;;;4771390;30;20092;-83
2021/04/21 04:55:20;;;;;;;45.55;29.42;;;256.10;2252.80;;;;;;4771232;30;20043;-84
2021/04/21 04:57:48;;;;;;;59.90;36.88;;;256.10;2252.80;;;;;;4771114;30;20043;-83
2021/04/21 05:00:17;;;;;;;56.88;38.28;;;256.10;2252.80;;;;;;4787475;29;20039;-83
2021/04/21 05:03:14;;;;;;;60.97;35.83;;;256.00;2252.80;;;;;;4789903;30;20070;-83
2021/04/21 05:05:40;;;;;;;53.25;35.13;;;256.00;2252.80;;;;;;4773804;29;20035;-83
2021/04/21 05:08:16;;;;;;;55.15;33.78;;;256.00;2252.80;;;;;;4773966;29;20112;-83
2021/04/21 05:11:16;;;;;;;58.15;37.33;;;256.10;2252.80;;;;;;4802474;29;20051;-85
2021/04/21 05:13:50;;;;;;;61.72;36.47;;;256.10;2252.80;;;;;;4752789;30;20043;-85
2021/04/21 05:16:25;;;;;;;57.67;34.65;;;256.20;2252.80;;;;;;4752783;30;20052;-85
2021/04/21 05:19:27;;;;;;;53.38;32.85;;;256.20;2252.80;;;;;;4752691;30;20175;-86
2021/04/21 05:22:14;;;;;;;46.50;31.38;;;256.30;2252.80;;;;;;4753221;30;20059;-86
2021/04/21 05:25:16;;;;;;;44.60;29.27;;;256.20;2252.80;;;;;;4760779;30;20044;-85
2021/04/21 05:27:55;;;;;;;42.67;27.15;;;256.10;2252.80;;;;;;4755279;30;20098;-85
2021/04/21 05:31:04;;;;;;;36.17;22.42;;;256.20;2252.80;;;;;;4754361;29;20048;-85
2021/04/21 05:34:07;;;;;;;29.17;19.50;;;256.10;2252.80;;;;;;4752770;30;20052;-86
2021/04/21 05:36:50;;;;;;;34.05;20.17;;;256.10;2252.80;;;;;;4752712;30;20068;-86
2021/04/21 05:39:25;;;;;;;35.10;19.90;;;256.10;2252.80;;;;;;4752067;30;20036;-85
2021/04/21 05:41:50;;;;;;;28.40;20.90;;;256.20;2252.80;;;;;;4751948;30;20048;-85
2021/04/21 05:44:34;;;;;;;35.03;21.65;;;256.10;2252.80;;;;;;4752022;30;20127;-85
2021/04/21 05:47:06;;;;;;;28.90;19.85;;;256.30;2252.80;;;;;;4752110;30;20070;-86
2021/04/21 05:49:49;;;;;;;28.98;18.85;;;256.40;2252.80;;;;;;4763478;29;20039;-86
2021/04/21 05:53:02;;;;;;;37.08;21.00;;;256.40;2252.80;;;;;;4803625;29;20031;-86
2021/04/21 05:56:02;;;;;;;31.08;20.10;;;256.70;2252.80;;;;;;4752024;30;20047;-85
2021/04/21 05:59:05;;;;;;;27.35;17.85;;;256.80;2252.80;;;;;;4752593;30;20040;-86
2021/04/21 06:01:35;;;;;;;33.28;19.13;;;256.90;2252.80;;;;;;4751785;30;20048;-85
2021/04/21 06:04:02;;;;;;;24.40;17.48;;;281.60;2278.40;;;;;;4752044;30;20103;-85
2021/04/21 06:06:28;;;;;;;32.47;18.58;;;281.80;2278.40;;;;;;4752196;30;20051;-85
2021/04/21 06:08:55;;;;;;;34.53;19.83;;;281.90;2278.40;;;;;;4751745;30;20675;-86
2021/04/21 06:11:26;;;;;;;30.17;20.48;;;281.80;2278.40;;;;;;4751779;30;20044;-86
2021/04/21 06:13:54;;;;;;;33.72;20.45;;;282.20;2278.40;;;;;;4751879;30;20036;-85
2021/04/21 06:16:21;;;;;;;26.70;18.90;;;282.20;2278.40;;;;;;4737296;30;20127;-85
2021/04/21 06:18:51;;;;;;;28.30;20.08;;;282.30;2278.40;;;;;;4751546;30;20125;-86
2021/04/21 06:21:18;;;;;;;29.55;18.55;;;282.40;2278.40;;;;;;4751513;30;20059;-86
2021/04/21 06:23:44;;;;;;;28.88;19.30;;;282.50;2278.40;;;;;;4751624;30;20051;-85
2021/04/21 06:26:11;;;;;;;26.25;18.50;;;282.50;2278.40;;;;;;4736650;30;20044;-85
2021/04/21 06:28:37;;;;;;;25.98;17.33;;;307.20;2278.40;;;;;;4735327;30;20040;-85
2021/04/21 06:31:10;;;;;;;30.02;18.23;;;307.30;2278.40;;;;;;4719801;30;20086;-88
2021/04/21 06:33:40;;;;;;;26.10;17.30;;;307.40;2252.80;;;;;;4769180;30;20044;-85
2021/04/21 06:36:08;;;;;;;23.33;17.15;;;307.60;2252.80;;;;;;4785441;29;20047;-85
2021/04/21 06:38:36;;;;;;;26.58;17.00;;;307.70;2201.60;;;;;;4790988;30;20137;-84
2021/04/21 06:41:02;;;;;;;27.35;18.58;;;307.90;2201.60;;;;;;4790975;29;20047;-84
2021/04/21 06:43:36;;;;;;;47.88;27.92;;;308.00;2150.40;;;;;;4791413;30;20040;-85
2021/04/21 06:46:07;;;;;;;35.28;22.58;;;332.80;2201.60;;;;;;4791246;29;20065;-85
2021/04/21 06:48:36;;;;;;;27.98;18.88;;;332.90;2150.40;;;;;;4803573;29;20544;-82
2021/04/21 06:51:16;;;;;;;15.75;10.93;;;332.90;2073.60;;;;;;4790922;30;20041;-84
2021/04/21 06:53:43;;;;;;;20.23;14.68;;;333.00;1996.80;;;;;;4791452;30;20039;-84
2021/04/21 06:56:09;;;;;;;20.85;14.27;;;333.20;2073.60;;;;;;4790480;29;20557;-85
2021/04/21 06:58:37;;;;;;;19.88;13.57;;;333.20;2073.60;;;;;;4806745;29;20071;-87
2021/04/21 07:01:09;;;;;;;26.65;14.95;;;333.40;2048.00;;;;;;4788869;29;20062;-88
2021/04/21 07:03:35;;;;;;;22.13;15.20;;;333.40;2099.20;;;;;;4785050;29;20047;-89
2021/04/21 07:06:01;;;;;;;23.08;13.02;;;333.50;2073.60;;;;;;4792591;30;20405;-87
2021/04/21 07:08:35;;;;;;;17.90;11.50;;;333.70;1996.80;;;;;;4791789;30;20039;-88
2021/04/21 07:11:03;;;;;;;15.25;10.20;;;333.70;1996.80;;;;;;4776749;30;20062;-88
2021/04/21 07:13:47;;;;;;;20.70;13.60;;;333.70;1945.60;;;;;;4777409;30;20054;-89
2021/04/21 07:16:22;;;;;;;27.85;13.65;;;333.70;2073.60;;;;;;4776372;30;20043;-84
2021/04/21 07:18:55;;;;;;;21.40;13.55;;;358.70;2048.00;;;;;;4764092;30;20096;-82
2021/04/21 07:21:22;;;;;;;24.92;14.40;;;358.70;2022.40;;;;;;4771651;30;20055;-84
2021/04/21 07:24:12;;;;;;;21.35;14.70;;;358.90;2048.00;;;;;;4775636;30;20098;-83
2021/04/21 07:27:02;;;;;;;22.38;15.50;;;359.00;2048.00;;;;;;4775239;29;20122;-84
2021/04/21 07:29:37;;;;;;;22.98;14.38;;;359.30;1971.20;;;;;;4775685;30;20039;-84
2021/04/21 07:38:57;;;;;;;14.93;9.40;;;409.60;1894.40;;;;;;4718970;30;20056;-84
2021/04/21 07:41:51;;;;;;;16.60;10.68;;;409.70;1843.20;;;;;;4713179;30;20057;-83
2021/04/21 07:44:27;;;;;;;;;;;409.60;1689.60;;;;;;4702904;30;20084;-84
2021/04/21 07:47:14;;;;;;;39.50;26.10;;;409.70;1740.80;;;;;;4701033;30;20387;-84
2021/04/21 07:49:45;;;;;;;18.13;12.82;;;410.10;1689.60;;;;;;4688389;30;20037;-79
2021/04/21 07:52:32;;;;;;;30.10;16.75;;;410.10;1689.60;;;;;;4701135;30;20046;-80
2021/04/21 07:55:35;;;;;;;119.50;54.75;;;409.90;1715.20;;;;;;4700894;30;20092;-84
2021/04/21 07:58:05;;;;;;;19.20;10.43;;;409.90;1689.60;;;;;;4691789;30;20057;-84
2021/04/21 08:00:36;;;;;;;17.33;9.07;;;410.20;1689.60;;;;;;4689283;30;20054;-83
2021/04/21 08:03:03;;;;;;;20.85;10.48;;;410.10;1638.40;;;;;;4692429;30;20052;-85
2021/04/21 08:05:51;;;;;;;23.38;10.27;;;410.50;1664.00;;;;;;4688801;30;20046;-87
2021/04/21 08:08:27;;;;;;;18.08;10.40;;;435.40;1561.60;;;;;;4718434;30;20043;-86
2021/04/21 08:10:53;;;;;;;41.42;21.77;;;435.70;1587.20;;;;;;4782359;30;20055;-84
2021/04/21 08:13:50;;;;;;;50.75;34.17;;;436.10;1561.60;;;;;;4774060;30;20077;-94
2021/04/21 08:16:32;;;;;;;40.25;22.35;;;460.80;1510.40;;;;;;4793308;29;20405;-85
2021/04/21 08:18:59;;;;;;;32.47;23.90;;;461.00;1561.60;;;;;;4793906;29;20051;-91
2021/04/21 08:21:43;;;;;;;21.08;9.43;;;461.00;1459.20;;;;;;4795134;29;20063;-90
2021/04/21 08:24:18;;;;;;;17.45;8.93;;;436.00;1433.60;;;;;;4786974;30;20048;-89
2021/04/21 08:26:49;;;;;;;10.60;7.05;;;460.90;1433.60;;;;;;4788609;29;20063;-87
2021/04/21 08:29:16;;;;;;;28.05;11.75;;;435.60;1433.60;;;;;;4788389;30;20071;-90
2021/04/21 08:31:45;;;;;;;12.85;8.57;;;435.90;1459.20;;;;;;4792291;29;20043;-90
2021/04/21 08:34:11;;;;;;;18.90;7.03;;;436.10;1408.00;;;;;;4790036;29;20054;-92
2021/04/21 08:36:37;;;;;;;16.67;7.43;;;436.10;1356.80;;;;;;4806277;29;20035;-90
2021/04/21 08:39:04;;;;;;;13.20;7.35;;;436.10;1382.40;;;;;;4788030;29;20151;-85
2021/04/21 08:41:34;;;;;;;27.20;9.18;;;435.90;1305.60;;;;;;4789103;29;20107;-89
2021/04/21 08:44:00;;;;;;;21.77;7.78;;;435.60;1408.00;;;;;;4792563;29;20036;-84
2021/04/21 08:46:26;;;;;;;16.85;8.82;;;435.90;1433.60;;;;;;4792914;29;20405;-83
2021/04/21 08:48:53;;;;;;;14.05;8.43;;;435.80;1408.00;;;;;;4784103;29;20044;-84
2021/04/21 08:51:20;;;;;;;16.23;7.00;;;435.80;1408.00;;;;;;4785977;30;20142;-87
2021/04/21 08:54:14;;;;;;;17.10;9.50;;;435.60;1408.00;;;;;;4771787;30;20040;-87
2021/04/21 08:56:42;;;;;;;12.50;8.07;;;435.60;1510.40;;;;;;4770086;30;20058;-84
2021/04/21 08:59:09;;;;;;;21.30;9.65;;;435.80;1382.40;;;;;;4776497;29;20107;-86
2021/04/21 09:01:35;;;;;;;13.00;7.50;;;436.00;1408.00;;;;;;4797127;29;20055;-85
2021/04/21 09:04:02;;;;;;;12.23;8.23;;;436.00;1433.60;;;;;;4789907;29;20049;-86
2021/04/21 09:06:28;;;;;;;8.70;6.00;;;435.70;1433.60;;;;;;4789454;30;20043;-92
2021/04/21 09:08:55;;;;;;;12.32;6.72;;;435.80;1382.40;;;;;;4782150;29;20040;-87
2021/04/21 09:11:23;;;;;;;10.10;6.90;;;435.80;1382.40;;;;;;4770560;30;20524;-86
2021/04/21 09:13:49;;;;;;;7.93;5.22;;;436.10;1382.40;;;;;;4781719;29;20063;-86
2021/04/21 09:16:17;;;;;;;7.03;5.05;;;435.70;1280.00;;;;;;4789034;30;20051;-83
2021/04/21 09:18:43;;;;;;;7.50;5.63;;;435.40;1305.60;;;;;;4787830;30;20039;-83
2021/04/21 09:21:20;;;;;;;9.82;6.13;;;435.40;1331.20;;;;;;4789233;30;20180;-83
2021/04/21 09:23:47;;;;;;;9.15;6.13;;;435.30;1382.40;;;;;;4802624;29;20063;-84
2021/04/21 09:26:24;;;;;;;8.65;5.97;;;435.30;1382.40;;;;;;4788268;29;20044;-83
2021/04/21 09:28:53;;;;;;;10.93;6.53;;;410.40;1356.80;;;;;;4788339;29;20043;-84
2021/04/21 09:31:25;;;;;;;7.50;5.45;;;410.40;1356.80;;;;;;4788131;29;20039;-85
2021/04/21 09:34:09;;;;;;;8.35;5.35;;;410.20;1356.80;;;;;;4790612;29;20058;-90
2021/04/21 09:36:41;;;;;;;21.48;14.00;;;410.20;1459.20;;;;;;4780367;30;20134;-86
2021/04/21 09:39:16;;;;;;;24.13;14.83;;;410.40;1408.00;;;;;;4773970;30;20062;-94
2021/04/21 09:41:43;;;;;;;27.33;17.58;;;410.40;1484.80;;;;;;4788251;29;20370;-92
2021/04/21 09:44:15;;;;;;;13.25;7.72;;;410.50;1459.20;;;;;;4789161;30;20040;-93
2021/04/21 09:46:42;;;;;;;9.05;5.68;;;410.50;1510.40;;;;;;4806529;29;20133;-91
2021/04/21 09:49:34;;;;;;;12.10;7.78;;;410.50;1433.60;;;;;;4805075;29;20051;-91
2021/04/21 09:52:11;;;;;;;14.93;7.07;;;435.20;1459.20;;;;;;4804106;29;20481;-91
2021/04/21 09:54:40;;;;;;;15.15;8.70;;;435.20;1484.80;;;;;;4789950;29;20543;-91
2021/04/21 09:57:18;;;;;;;14.85;9.10;;;410.50;1484.80;;;;;;4803610;29;20725;-91
2021/04/21 09:59:57;;;;;;;11.25;7.28;;;435.30;1459.20;;;;;;4803789;29;20048;-91
2021/04/21 10:02:42;;;;;;;13.57;9.55;;;435.30;1484.80;;;;;;4803801;29;20100;-91
2021/04/21 10:05:27;;;;;;;41.75;27.67;;;435.30;1459.20;;;;;;4804236;29;20043;-85
2021/04/21 10:08:31;;;;;;;49.45;29.02;;;410.40;1408.00;;;;;;4803793;29;20042;-86
2021/04/21 10:11:05;;;;;;;14.98;9.18;;;410.40;1433.60;;;;;;4791772;29;20061;-91
2021/04/21 10:13:44;;;;;;;14.05;8.80;;;410.20;1510.40;;;;;;4775743;30;20036;-86
2021/04/21 10:16:10;;;;;;;17.77;12.60;;;410.30;1510.40;;;;;;4773738;30;20114;-91
2021/04/21 10:18:37;;;;;;;13.77;8.50;;;410.40;1510.40;;;;;;4772628;29;20528;-86
2021/04/21 10:21:04;;;;;;;15.65;9.13;;;410.40;1510.40;;;;;;4772413;30;20179;-85
2021/04/21 10:23:31;;;;;;;12.35;7.82;;;410.50;1510.40;;;;;;4772483;30;20044;-85
2021/04/21 10:26:24;;;;;;;10.18;7.10;;;410.20;1561.60;;;;;;4773177;30;20081;-87
2021/04/21 10:28:50;;;;;;;11.10;7.82;;;410.00;1612.80;;;;;;4768085;30;20035;-86
2021/04/21 10:31:17;;;;;;;10.55;6.85;;;409.80;1612.80;;;;;;4773367;29;20047;-84
2021/04/21 10:33:44;;;;;;;17.30;10.43;;;384.90;1612.80;;;;;;4779843;30;20027;-86
2021/04/21 10:36:11;;;;;;;10.93;7.78;;;384.80;1715.20;;;;;;4791931;29;20077;-85
2021/04/21 10:38:46;;;;;;;11.60;8.13;;;384.60;1740.80;;;;;;4784381;30;20039;-83
2021/04/21 10:41:35;;;;;;;14.07;9.45;;;384.30;1766.40;;;;;;4774686;30;20071;-88
2021/04/21 10:44:15;;;;;;;17.05;9.48;;;384.30;1817.60;;;;;;4786702;30;20054;-85
2021/04/21 10:47:00;;;;;;;19.40;12.38;;;384.40;1792.00;;;;;;4818782;29;20043;-82
2021/04/21 10:50:04;;;;;;;17.20;10.63;;;384.10;1843.20;;;;;;4812629;29;20058;-85
2021/04/21 10:52:30;;;;;;;21.25;13.90;;;384.30;1868.80;;;;;;4802891;29;20180;-84
2021/04/21 10:54:57;;;;;;;17.48;11.85;;;384.10;1894.40;;;;;;4797310;29;20557;-82
2021/04/21 10:57:24;;;;;;;35.92;26.70;;;384.00;1894.40;;;;;;4784096;30;20095;-83
2021/04/21 11:00:24;;;;;;;26.27;14.40;;;359.30;1920.00;;;;;;4771876;30;20043;-85
2021/04/21 11:03:07;;;;;;;36.80;18.67;;;384.00;1920.00;;;;;;4803725;29;20566;-91
2021/04/21 11:05:47;;;;;;;16.08;11.07;;;384.30;1894.40;;;;;;4777788;30;20051;-87
2021/04/21 11:08:47;;;;;;;12.95;9.02;;;384.60;1817.60;;;;;;4783310;30;20063;-93
2021/04/21 11:11:14;;;;;;;11.43;8.88;;;409.70;1843.20;;;;;;4770513;30;20048;-83
2021/04/21 11:13:42;;;;;;;13.18;11.10;;;410.20;1792.00;;;;;;4771962;30;20498;-91
2021/04/21 11:16:11;;;;;;;22.27;17.40;;;435.30;1715.20;;;;;;4771651;30;20051;-88
2021/04/21 11:18:39;;;;;;;12.63;8.77;;;435.80;1664.00;;;;;;4772153;30;20056;-89
2021/04/21 11:21:07;;;;;;;17.35;10.48;;;460.90;1715.20;;;;;;4775461;30;20051;-88
2021/04/21 11:40:19;;;;;;;12.10;10.13;;;461.00;1561.60;;;;;;4775551;30;20561;-86
2021/04/21 11:43:22;;;;;;;18.50;15.15;;;461.10;1484.80;;;;;;4735977;30;20049;-84
2021/04/21 11:50:14;;;;;;;10.30;7.57;;;461.50;1408.00;;;;;;4702447;30;20054;-85
2021/04/21 11:53:01;;;;;;;13.45;8.85;;;486.40;1382.40;;;;;;4701252;30;20045;-85
2021/04/21 11:55:55;;;;;;;12.35;7.40;;;486.60;1382.40;;;;;;4702418;30;20049;-85
2021/04/21 11:59:02;;;;;;;11.98;7.15;;;487.00;1382.40;;;;;;4701214;30;20041;-85
2021/04/21 12:01:40;;;;;;;9.15;6.78;;;487.20;1408.00;;;;;;4698533;30;20049;-85
2021/04/21 12:04:27;;;;;;;14.45;10.07;;;487.30;1356.80;;;;;;4701438;30;20034;-85
2021/04/21 12:06:53;;;;;;;24.80;13.20;;;487.00;1356.80;;;;;;4701202;30;20049;-85
2021/04/21 12:09:21;;;;;;;10.80;7.55;;;487.00;1382.40;;;;;;4686737;30;20033;-85
2021/04/21 12:11:58;;;;;;;10.77;7.75;;;486.60;1382.40;;;;;;4700920;30;20052;-86
2021/04/21 12:14:27;;;;;;;26.88;10.05;;;486.50;1382.40;;;;;;4700767;30;20511;-85
2021/04/21 12:17:19;;;;;;;12.50;9.13;;;486.70;1433.60;;;;;;4701161;30;20041;-85
2021/04/21 12:19:49;;;;;;;11.55;6.22;;;486.90;1382.40;;;;;;4736004;30;20110;-85
2021/04/21 12:22:15;;;;;;;18.50;12.20;;;486.90;1305.60;;;;;;4738302;30;20044;-85
2021/04/21 12:25:02;;;;;;;13.35;10.02;;;487.00;1331.20;;;;;;4738287;30;20064;-86
2021/04/21 12:27:29;;;;;;;27.33;8.45;;;487.10;1382.40;;;;;;4768671;30;20087;-86
2021/04/21 12:30:14;;;;;;;11.00;7.22;;;487.20;1331.20;;;;;;4786980;29;20040;-86
2021/04/21 12:32:43;;;;;;;21.02;10.00;;;487.00;1356.80;;;;;;4786563;29;20039;-84
2021/04/21 12:35:50;;;;;;;13.32;9.45;;;512.20;1331.20;;;;;;4786631;29;20063;-85
2021/04/21 12:38:40;;;;;;;9.32;6.97;;;512.20;1331.20;;;;;;4785368;29;20054;-85
2021/04/21 12:41:19;;;;;;;38.28;10.13;;;512.40;1331.20;;;;;;4786385;29;20097;-85
2021/04/21 12:43:45;;;;;;;10.45;6.05;;;512.10;1280.00;;;;;;4785992;29;20043;-85
2021/04/21 12:46:24;;;;;;;10.57;7.55;;;487.30;1254.40;;;;;;4786743;30;20035;-86
2021/04/21 12:50:08;;;;;;;;;;;;;;;;;;;;;
2021/04/21 13:18:25;;;;;;;;;;;;;;;;;;;;;
2021/04/21 13:21:07;;;;;;;;;;;487.30;1280.00;;;;;;4706264;30;20145;-85
2021/04/21 13:23:44;;;;;;;11.95;8.88;;;512.20;1254.40;;;;;;4685574;30;19926;-86
2021/04/21 13:26:16;;;;;;;18.95;10.10;;;512.30;1331.20;;;;;;4701295;30;20052;-86
2021/04/21 13:29:17;;;;;;;17.37;15.57;;;512.20;1254.40;;;;;;4722272;30;20045;-86
2021/04/21 13:36:11;;;;;;;9.02;7.20;;;512.10;1228.80;;;;;;4682056;30;20053;-86
2021/04/21 13:38:42;;;;;;;8.85;6.65;;;487.20;1254.40;;;;;;4677690;30;20033;-85
2021/04/21 13:41:12;;;;;;;13.95;6.55;;;512.10;1254.40;;;;;;4685574;30;20105;-85
2021/04/21 13:43:56;;;;;;;10.90;7.93;;;512.20;1203.20;;;;;;4682272;30;20135;-85
2021/04/21 13:47:06;;;;;;;7.45;6.35;;;512.30;1254.40;;;;;;4668258;30;20038;-86